Time;durP1;ratioP1;P1;durP2;ratioP2;P2;SDS_P1;SDS_P2;PMS_P1;PMS_P2;Temp;Humidity;BMP_temperature;BMP_pressure;BME280_temperature;BME280_humidity;BME280_pressure;Samples;Min_cycle;Max_cycle;Signal;HPM_P1;HPM_P2
2021/01/20 00:00:25;;;;;;;;;;;;;;;25.09;27.90;100065.97;5061481;28;1909;-52
2021/01/20 00:02:50;;;;;;;;;;;;;;;25.10;28.22;100060.81;5061071;28;1293;-50
2021/01/20 00:05:15;;;;;;;;;;;;;;;25.12;28.17;100066.06;5061043;28;1043;-50
2021/01/20 00:07:41;;;;;;;;;;;;;;;25.08;27.98;100062.81;5060893;28;1014;-51
2021/01/20 00:10:06;;;;;;;;;;;;;;;25.06;27.92;100065.50;5061848;28;1373;-53
2021/01/20 00:12:31;;;;;;;;;;;;;;;25.05;28.08;100055.59;5061018;28;1098;-54
2021/01/20 00:14:56;;;;;;;;;;;;;;;25.01;28.07;100051.25;5059411;28;1455;-57
2021/01/20 00:17:22;;;;;;;;;;;;;;;25.01;28.32;100046.88;5060125;28;1126;-54
2021/01/20 00:19:47;;;;;;;;;;;;;;;25.02;27.75;100046.34;5060325;28;1901;-56
2021/01/20 00:22:12;;;;;;;;;;;;;;;25.02;27.77;100046.75;5043716;28;1256;-52
2021/01/20 00:24:38;;;;;;;;;;;;;;;25.00;27.97;100049.16;5062280;28;1275;-53
2021/01/20 00:27:07;;;;;;;;;;;;;;;24.98;27.66;100044.00;5060667;28;1034;-53
2021/01/20 00:29:33;;;;;;;;;;;;;;;24.98;27.61;100041.81;5061254;28;953;-51
2021/01/20 00:31:58;;;;;;;;;;;;;;;24.98;27.89;100037.63;5042835;28;1296;-51
2021/01/20 00:34:24;;;;;;;;;;;;;;;24.96;27.92;100038.97;5060434;28;1057;-55
2021/01/20 00:36:49;;;;;;;;;;;;;;;24.96;27.77;100043.00;5061220;28;1145;-51
2021/01/20 00:39:14;;;;;;;;;;;;;;;24.94;27.83;100034.19;5061035;28;1910;-55
2021/01/20 00:41:39;;;;;;;;;;;;;;;24.96;27.98;100027.75;5060260;28;1300;-50
2021/01/20 00:44:05;;;;;;;;;;;;;;;24.97;27.82;100017.97;5061647;28;1021;-51
2021/01/20 00:46:30;;;;;;;;;;;;;;;24.92;27.79;100020.44;5061234;28;1122;-53
2021/01/20 00:48:55;;;;;;;;;;;;;;;24.92;27.73;100018.38;5060776;28;1201;-54
2021/01/20 00:51:20;;;;;;;;;;;;;;;24.95;27.67;100020.91;5061339;28;1290;-52
2021/01/20 00:53:46;;;;;;;;;;;;;;;24.95;27.76;100018.91;5061449;28;1129;-53
2021/01/20 00:56:12;;;;;;;;;;;;;;;24.96;27.71;100016.78;5058485;28;1436;-51
2021/01/20 00:58:37;;;;;;;;;;;;;;;24.95;27.60;100012.88;5060593;28;1918;-50
2021/01/20 01:01:02;;;;;;;;;;;;;;;24.94;27.59;100013.75;5061078;28;1421;-55
2021/01/20 01:03:27;;;;;;;;;;;;;;;24.90;27.51;100006.63;5061208;28;1182;-52
2021/01/20 01:05:53;;;;;;;;;;;;;;;24.87;27.60;100002.34;5061622;28;1099;-51
2021/01/20 01:08:18;;;;;;;;;;;;;;;24.83;27.35;100005.31;5062470;28;1102;-51
2021/01/20 01:10:43;;;;;;;;;;;;;;;24.80;27.40;100000.19;5060410;28;1366;-53
2021/01/20 01:13:08;;;;;;;;;;;;;;;24.77;27.49;99996.03;5062722;28;1110;-51
2021/01/20 01:15:34;;;;;;;;;;;;;;;24.75;27.50;99998.16;5063092;28;1106;-51
2021/01/20 01:17:59;;;;;;;;;;;;;;;24.67;27.56;100000.09;5059896;28;1171;-50
2021/01/20 01:20:24;;;;;;;;;;;;;;;24.65;27.52;99997.56;5061051;28;1890;-52
2021/01/20 01:22:49;;;;;;;;;;;;;;;24.62;27.51;99996.28;5063564;28;1038;-49
2021/01/20 01:25:14;;;;;;;;;;;;;;;24.56;27.47;99997.34;5064337;28;899;-51
2021/01/20 01:27:39;;;;;;;;;;;;;;;24.53;27.40;99996.41;5064387;28;942;-50
2021/01/20 01:30:05;;;;;;;;;;;;;;;24.50;27.44;99994.09;5064527;28;1236;-53
2021/01/20 01:32:30;;;;;;;;;;;;;;;24.47;27.44;99989.38;5062852;28;887;-53
2021/01/20 01:34:55;;;;;;;;;;;;;;;24.44;27.41;99988.72;5064283;28;915;-52
2021/01/20 01:37:20;;;;;;;;;;;;;;;24.42;27.48;99987.97;5064132;28;964;-50
2021/01/20 01:39:46;;;;;;;;;;;;;;;24.38;27.46;99985.41;5064555;28;1898;-54
2021/01/20 01:42:11;;;;;;;;;;;;;;;24.35;27.53;99982.81;5064112;28;1224;-55
2021/01/20 01:44:37;;;;;;;;;;;;;;;24.34;27.49;99982.03;5064446;28;980;-53
2021/01/20 01:47:02;;;;;;;;;;;;;;;24.29;27.49;99976.22;5063571;28;951;-52
2021/01/20 01:49:29;;;;;;;;;;;;;;;24.29;27.46;99977.22;5063860;28;1055;-54
2021/01/20 01:51:54;;;;;;;;;;;;;;;24.26;27.58;99971.84;5064238;28;1267;-53
2021/01/20 01:54:19;;;;;;;;;;;;;;;24.25;27.49;99973.81;5064439;28;994;-56
2021/01/20 01:56:45;;;;;;;;;;;;;;;24.22;27.50;99963.63;5063953;28;939;-52
2021/01/20 01:59:11;;;;;;;;;;;;;;;24.21;27.35;99957.09;5063948;28;1902;-54
2021/01/20 02:01:36;;;;;;;;;;;;;;;24.20;27.47;99956.09;5061396;28;1643;-54
2021/01/20 02:04:02;;;;;;;;;;;;;;;24.19;27.54;99945.81;5063275;28;966;-54
2021/01/20 02:06:27;;;;;;;;;;;;;;;24.19;27.66;99951.44;5064359;28;872;-52
2021/01/20 02:08:53;;;;;;;;;;;;;;;24.18;27.85;99946.66;5064219;28;1066;-52
2021/01/20 02:11:24;;;;;;;;;;;;;;;24.16;27.78;99938.06;5063372;28;1298;-56
2021/01/20 02:14:07;;;;;;;;;;;;;;;24.15;27.72;99934.09;5063837;28;852;-54
2021/01/20 02:16:35;;;;;;;;;;;;;;;24.13;27.86;99924.66;5063177;28;1110;-54
2021/01/20 02:19:00;;;;;;;;;;;;;;;24.13;27.93;99925.00;5062716;28;1917;-52
2021/01/20 02:21:25;;;;;;;;;;;;;;;24.13;27.98;99923.25;5064161;28;1361;-54
2021/01/20 02:23:51;;;;;;;;;;;;;;;24.12;28.04;99923.28;5063227;28;1053;-52
2021/01/20 02:26:16;;;;;;;;;;;;;;;24.12;27.95;99921.84;5063087;28;1061;-51
2021/01/20 02:28:49;;;;;;;;;;;;;;;24.12;28.07;99919.94;5063423;28;1019;-53
2021/01/20 02:31:15;;;;;;;;;;;;;;;24.11;28.11;99918.41;5061880;28;1622;-55
2021/01/20 02:33:43;;;;;;;;;;;;;;;24.10;28.20;99919.38;5062932;28;872;-55
2021/01/20 02:36:08;;;;;;;;;;;;;;;24.09;28.20;99921.75;5062901;28;935;-54
2021/01/20 02:38:34;;;;;;;;;;;;;;;24.07;28.27;99921.56;5062782;28;2008;-54
2021/01/20 02:41:00;;;;;;;;;;;;;;;24.08;28.22;99917.50;5062513;28;1255;-54
2021/01/20 02:43:26;;;;;;;;;;;;;;;24.07;28.20;99920.50;5063102;28;1045;-51
2021/01/20 02:45:51;;;;;;;;;;;;;;;24.10;28.29;99918.19;5062596;28;943;-54
2021/01/20 02:48:16;;;;;;;;;;;;;;;24.07;28.38;99914.63;5062896;28;977;-53
2021/01/20 02:50:41;;;;;;;;;;;;;;;24.06;28.31;99915.19;5062794;28;1307;-55
2021/01/20 02:53:12;;;;;;;;;;;;;;;24.06;28.39;99909.81;5063468;28;975;-54
2021/01/20 02:55:37;;;;;;;;;;;;;;;24.04;28.48;99906.13;5062485;28;1021;-54
2021/01/20 02:58:09;;;;;;;;;;;;;;;24.03;28.42;99907.19;5062903;28;1116;-55
2021/01/20 03:00:37;;;;;;;;;;;;;;;24.07;28.34;99903.09;5063869;28;1959;-54
2021/01/20 03:03:04;;;;;;;;;;;;;;;24.06;28.53;99904.47;5062405;28;1233;-54
2021/01/20 03:05:30;;;;;;;;;;;;;;;24.00;28.41;99901.34;5063291;28;958;-54
2021/01/20 03:07:56;;;;;;;;;;;;;;;23.99;28.36;99898.13;5062602;28;1076;-51
2021/01/20 03:10:22;;;;;;;;;;;;;;;23.97;28.36;99897.88;5062599;28;1292;-54
2021/01/20 03:12:48;;;;;;;;;;;;;;;23.96;28.21;99895.84;5062516;28;972;-53
2021/01/20 03:15:25;;;;;;;;;;;;;;;23.97;28.24;99895.75;5062522;28;864;-54
2021/01/20 03:17:50;;;;;;;;;;;;;;;23.95;28.20;99891.78;5062138;28;1817;-51
2021/01/20 03:20:15;;;;;;;;;;;;;;;23.94;28.26;99893.03;5062219;28;1894;-51
2021/01/20 03:22:41;;;;;;;;;;;;;;;23.94;28.25;99889.78;5061769;28;967;-53
2021/01/20 03:25:06;;;;;;;;;;;;;;;23.94;28.13;99891.41;5061968;28;1069;-50
2021/01/20 03:27:31;;;;;;;;;;;;;;;23.94;28.16;99894.75;5061904;28;1042;-50
2021/01/20 03:29:56;;;;;;;;;;;;;;;23.97;28.03;99890.00;5062791;28;975;-54
2021/01/20 03:32:21;;;;;;;;;;;;;;;23.94;28.10;99888.97;5060890;28;1336;-53
2021/01/20 03:34:47;;;;;;;;;;;;;;;23.95;27.96;99890.00;5062566;28;935;-51
2021/01/20 03:37:12;;;;;;;;;;;;;;;23.94;27.95;99888.72;5062240;28;931;-53
2021/01/20 03:39:37;;;;;;;;;;;;;;;23.93;27.95;99883.63;5062299;28;1953;-50
2021/01/20 03:42:02;;;;;;;;;;;;;;;23.92;27.98;99882.28;5061789;28;1284;-50
2021/01/20 03:44:28;;;;;;;;;;;;;;;23.91;27.99;99876.94;5061254;28;959;-50
2021/01/20 03:46:53;;;;;;;;;;;;;;;23.91;27.94;99877.69;5061037;28;1011;-51
2021/01/20 03:49:18;;;;;;;;;;;;;;;23.91;27.92;99872.09;5057471;28;1459;-50
2021/01/20 03:51:45;;;;;;;;;;;;;;;23.90;27.82;99872.75;5060643;28;1361;-52
2021/01/20 03:54:10;;;;;;;;;;;;;;;23.89;27.89;99869.00;5062699;28;979;-52
2021/01/20 03:56:35;;;;;;;;;;;;;;;23.88;27.90;99869.91;5044773;28;976;-52
2021/01/20 03:59:01;;;;;;;;;;;;;;;23.87;27.88;99869.41;5062462;28;1971;-51
2021/01/20 04:01:26;;;;;;;;;;;;;;;23.91;27.82;99867.97;5060698;28;1326;-52
2021/01/20 04:03:51;;;;;;;;;;;;;;;23.89;27.84;99862.97;5062455;28;1041;-51
2021/01/20 04:06:16;;;;;;;;;;;;;;;23.87;27.77;99866.13;5043890;28;1352;-52
2021/01/20 04:08:41;;;;;;;;;;;;;;;23.88;27.79;99863.75;5043233;28;974;-52
2021/01/20 04:11:07;;;;;;;;;;;;;;;23.87;27.84;99863.09;5043117;28;1382;-53
2021/01/20 04:13:35;;;;;;;;;;;;;;;23.85;27.82;99865.88;5061411;28;880;-53
2021/01/20 04:16:00;;;;;;;;;;;;;;;23.86;27.82;99864.84;5060754;28;1003;-54
2021/01/20 04:18:25;;;;;;;;;;;;;;;23.85;27.95;99868.28;5040561;28;2376;-50
2021/01/20 04:20:50;;;;;;;;;;;;;;;23.84;27.71;99865.84;5059632;28;1956;-53
2021/01/20 04:23:16;;;;;;;;;;;;;;;23.85;27.87;99867.16;5060330;28;876;-50
2021/01/20 04:25:41;;;;;;;;;;;;;;;23.84;27.73;99868.88;5059981;28;1031;-49
2021/01/20 04:28:06;;;;;;;;;;;;;;;23.84;27.76;99870.69;5060336;28;1000;-54
2021/01/20 04:30:31;;;;;;;;;;;;;;;23.84;27.75;99873.19;5059593;28;1370;-51
2021/01/20 04:32:56;;;;;;;;;;;;;;;23.86;27.63;99865.50;5060134;28;1004;-51
2021/01/20 04:35:21;;;;;;;;;;;;;;;23.81;27.70;99862.78;5060976;28;880;-54
2021/01/20 04:37:46;;;;;;;;;;;;;;;23.82;27.60;99863.28;5060695;28;967;-53
2021/01/20 04:40:12;;;;;;;;;;;;;;;23.82;27.64;99861.88;5061393;28;1955;-54
2021/01/20 04:42:37;;;;;;;;;;;;;;;23.80;27.76;99857.00;5059978;28;988;-51
2021/01/20 04:45:03;;;;;;;;;;;;;;;23.79;27.62;99855.38;5060354;28;1025;-52
2021/01/20 04:47:28;;;;;;;;;;;;;;;23.80;27.55;99853.16;5056795;28;2065;-52
2021/01/20 04:49:54;;;;;;;;;;;;;;;23.80;27.76;99851.72;5058693;28;972;-48
2021/01/20 04:52:19;;;;;;;;;;;;;;;23.78;27.61;99855.81;5060156;28;1259;-50
2021/01/20 04:54:45;;;;;;;;;;;;;;;23.80;27.60;99852.47;5057651;28;1066;-51
2021/01/20 04:57:12;;;;;;;;;;;;;;;23.79;27.49;99853.59;5060169;28;1032;-52
2021/01/20 04:59:38;;;;;;;;;;;;;;;23.79;27.54;99854.94;5057244;28;1991;-52
2021/01/20 05:02:03;;;;;;;;;;;;;;;23.78;27.60;99849.97;5058398;28;1982;-51
2021/01/20 05:04:28;;;;;;;;;;;;;;;23.76;27.60;99848.72;5060997;28;998;-50
2021/01/20 05:06:54;;;;;;;;;;;;;;;23.75;27.62;99849.44;5060368;28;1102;-52
2021/01/20 05:09:19;;;;;;;;;;;;;;;23.75;27.60;99847.84;5060084;28;1087;-53
2021/01/20 05:11:45;;;;;;;;;;;;;;;23.71;27.52;99845.06;5059566;28;1306;-54
2021/01/20 05:14:16;;;;;;;;;;;;;;;23.72;27.61;99845.88;5060254;28;1041;-51
2021/01/20 05:16:42;;;;;;;;;;;;;;;23.73;27.61;99841.16;5061265;28;1148;-52
2021/01/20 05:19:08;;;;;;;;;;;;;;;23.72;27.45;99844.88;5043128;28;1894;-53
2021/01/20 05:21:34;;;;;;;;;;;;;;;23.73;27.53;99846.31;5060171;28;1835;-50
2021/01/20 05:24:18;;;;;;;;;;;;;;;23.71;27.52;99843.97;5060606;28;991;-50
2021/01/20 05:26:44;;;;;;;;;;;;;;;23.72;27.48;99838.00;5060820;28;860;-54
2021/01/20 05:29:09;;;;;;;;;;;;;;;23.71;27.46;99832.28;5060246;28;1044;-53
2021/01/20 05:31:34;;;;;;;;;;;;;;;23.71;27.48;99833.19;5053416;28;2018;-51
2021/01/20 05:33:59;;;;;;;;;;;;;;;23.68;27.42;99827.66;5055219;28;1322;-50
2021/01/20 05:36:24;;;;;;;;;;;;;;;23.69;27.51;99826.34;5058033;28;999;-51
2021/01/20 05:38:50;;;;;;;;;;;;;;;23.68;27.53;99827.22;5057825;28;1894;-54
2021/01/20 05:41:21;;;;;;;;;;;;;;;23.71;27.55;99825.53;5056745;28;1473;-50
2021/01/20 05:43:48;;;;;;;;;;;;;;;23.69;27.48;99830.84;5058302;28;926;-50
2021/01/20 05:46:13;;;;;;;;;;;;;;;23.68;27.56;99830.38;5058637;28;978;-53
2021/01/20 05:48:45;;;;;;;;;;;;;;;23.67;27.45;99826.25;5060407;28;852;-52
2021/01/20 05:51:11;;;;;;;;;;;;;;;23.65;27.50;99826.94;5057848;28;1500;-54
2021/01/20 05:53:47;;;;;;;;;;;;;;;23.64;27.67;99823.03;5058604;28;1480;-55
2021/01/20 05:56:12;;;;;;;;;;;;;;;23.64;27.50;99818.69;5058340;28;1118;-50
2021/01/20 05:58:38;;;;;;;;;;;;;;;23.63;27.53;99814.22;5059214;28;1879;-50
2021/01/20 06:01:10;;;;;;;;;;;;;;;23.63;27.60;99816.56;5061639;28;1312;-51
2021/01/20 06:03:35;;;;;;;;;;;;;;;23.66;27.66;99808.91;5061071;28;1153;-51
2021/01/20 06:06:05;;;;;;;;;;;;;;;23.63;27.78;99810.81;5059279;28;1331;-50
2021/01/20 06:08:30;;;;;;;;;;;;;;;23.65;27.72;99810.28;5062516;28;1239;-50
2021/01/20 06:10:56;;;;;;;;;;;;;;;23.64;27.75;99811.59;5063412;28;1380;-51
2021/01/20 06:13:21;;;;;;;;;;;;;;;23.65;27.77;99809.44;5065283;28;1244;-54
2021/01/20 06:15:48;;;;;;;;;;;;;;;23.65;27.79;99809.28;5065216;28;1252;-52
2021/01/20 06:18:13;;;;;;;;;;;;;;;23.67;27.78;99806.78;5063306;28;1229;-52
2021/01/20 06:20:39;;;;;;;;;;;;;;;23.66;27.73;99801.88;5063273;28;1961;-51
2021/01/20 06:23:05;;;;;;;;;;;;;;;23.65;27.71;99801.84;5063350;28;1071;-53
2021/01/20 06:25:32;;;;;;;;;;;;;;;23.65;27.64;99802.53;5046178;28;1110;-50
2021/01/20 06:28:00;;;;;;;;;;;;;;;23.63;27.67;99802.00;5046251;28;988;-52
2021/01/20 06:30:31;;;;;;;;;;;;;;;23.63;27.64;99801.84;5063520;28;1330;-52
2021/01/20 06:32:57;;;;;;;;;;;;;;;23.64;27.64;99805.31;5064355;28;1055;-52
2021/01/20 06:35:22;;;;;;;;;;;;;;;23.63;27.61;99806.19;5064330;28;1119;-52
2021/01/20 06:37:48;;;;;;;;;;;;;;;23.63;27.72;99803.19;5063644;28;1091;-54
2021/01/20 06:40:20;;;;;;;;;;;;;;;23.64;27.64;99802.63;5065021;28;1961;-52
2021/01/20 06:42:46;;;;;;;;;;;;;;;23.63;27.53;99801.50;5064017;28;1139;-52
2021/01/20 06:45:12;;;;;;;;;;;;;;;23.61;27.58;99800.53;5064767;28;1241;-52
2021/01/20 06:47:56;;;;;;;;;;;;;;;23.63;27.61;99797.59;5062264;28;856;-52
2021/01/20 06:50:22;;;;;;;;;;;;;;;23.62;27.54;99795.03;5062262;28;1368;-54
2021/01/20 06:53:08;;;;;;;;;;;;;;;23.63;27.51;99799.09;5061306;28;980;-50
2021/01/20 06:55:38;;;;;;;;;;;;;;;23.61;27.50;99799.31;5062607;28;1038;-53
2021/01/20 06:58:18;;;;;;;;;;;;;;;23.61;27.54;99804.44;5061946;28;932;-54
2021/01/20 07:01:04;;;;;;;;;;;;;;;23.61;27.52;99805.94;5062137;28;1960;-54
2021/01/20 07:03:42;;;;;;;;;;;;;;;23.60;27.58;99803.81;5062935;28;1045;-53
2021/01/20 07:06:25;;;;;;;;;;;;;;;23.61;27.45;99804.09;5062589;28;994;-51
2021/01/20 07:08:51;;;;;;;;;;;;;;;23.60;27.55;99801.38;5062542;28;999;-52
2021/01/20 07:11:18;;;;;;;;;;;;;;;23.61;27.43;99795.91;5062295;28;1380;-55
2021/01/20 07:13:43;;;;;;;;;;;;;;;23.60;27.48;99792.78;5061708;28;923;-54
2021/01/20 07:16:10;;;;;;;;;;;;;;;23.60;27.39;99789.94;5063178;28;1140;-51
2021/01/20 07:18:38;;;;;;;;;;;;;;;23.62;27.35;99786.16;5043097;28;1683;-55
2021/01/20 07:21:04;;;;;;;;;;;;;;;23.59;27.46;99783.00;5043091;28;1311;-55
2021/01/20 07:23:30;;;;;;;;;;;;;;;23.60;27.35;99782.19;5061412;28;972;-53
2021/01/20 07:25:55;;;;;;;;;;;;;;;23.59;27.40;99785.63;5061210;28;1112;-56
2021/01/20 07:28:21;;;;;;;;;;;;;;;23.59;27.26;99783.94;5062505;28;911;-53
2021/01/20 07:30:46;;;;;;;;;;;;;;;23.60;27.40;99781.63;5062284;28;1287;-52
2021/01/20 07:33:15;;;;;;;;;;;;;;;23.59;27.37;99776.75;5062822;28;1180;-53
2021/01/20 07:35:40;;;;;;;;;;;;;;;23.59;27.42;99772.69;5061296;28;856;-52
2021/01/20 07:38:06;;;;;;;;;;;;;;;23.59;27.33;99772.09;5062741;28;967;-55
2021/01/20 07:40:32;;;;;;;;;;;;;;;23.58;27.34;99770.84;5062716;28;1969;-50
2021/01/20 07:42:58;;;;;;;;;;;;;;;23.58;27.36;99765.28;5061704;28;1007;-51
2021/01/20 07:45:30;;;;;;;;;;;;;;;23.59;27.30;99766.06;5060758;28;1446;-53
2021/01/20 07:47:55;;;;;;;;;;;;;;;23.63;27.30;99764.31;5059579;28;1342;-53
2021/01/20 07:50:21;;;;;;;;;;;;;;;23.60;27.39;99770.19;5060027;28;1460;-53
2021/01/20 07:52:47;;;;;;;;;;;;;;;23.56;27.43;99767.31;5058372;28;1191;-55
2021/01/20 07:55:14;;;;;;;;;;;;;;;23.59;27.39;99767.91;5062079;28;988;-52
2021/01/20 07:57:39;;;;;;;;;;;;;;;23.62;27.42;99763.66;5061685;28;915;-55
2021/01/20 08:00:07;;;;;;;;;;;;;;;23.61;27.23;99761.06;5061875;28;1905;-52
2021/01/20 08:02:32;;;;;;;;;;;;;;;23.59;27.39;99752.06;5061748;28;1235;-53
2021/01/20 08:04:58;;;;;;;;;;;;;;;23.60;27.34;99748.41;5057753;28;1461;-54
2021/01/20 08:07:23;;;;;;;;;;;;;;;23.58;27.37;99743.53;5058552;28;1140;-51
2021/01/20 08:09:49;;;;;;;;;;;;;;;23.58;27.33;99743.38;5060489;28;1420;-51
2021/01/20 08:12:15;;;;;;;;;;;;;;;23.59;27.30;99745.66;5061592;28;1354;-54
2021/01/20 08:14:41;;;;;;;;;;;;;;;23.60;27.29;99756.47;5061247;28;931;-53
2021/01/20 08:17:07;;;;;;;;;;;;;;;23.61;27.29;99766.16;5061793;28;975;-52
2021/01/20 08:19:34;;;;;;;;;;;;;;;23.61;27.21;99768.59;5060201;28;1967;-50
2021/01/20 08:22:00;;;;;;;;;;;;;;;23.60;27.17;99765.69;5060701;28;1371;-50
2021/01/20 08:24:25;;;;;;;;;;;;;;;23.59;27.29;99762.28;5059904;28;1136;-52
2021/01/20 08:26:54;;;;;;;;;;;;;;;23.60;27.41;99761.16;5061626;28;1043;-53
2021/01/20 08:29:21;;;;;;;;;;;;;;;23.60;27.26;99758.66;5062087;28;1068;-53
2021/01/20 08:31:46;;;;;;;;;;;;;;;23.61;27.30;99755.28;5059601;28;1310;-51
2021/01/20 08:34:21;;;;;;;;;;;;;;;23.60;27.29;99757.00;5061827;28;1096;-53
2021/01/20 08:37:04;;;;;;;;;;;;;;;23.62;27.22;99750.22;5061067;28;1159;-52
2021/01/20 08:39:31;;;;;;;;;;;;;;;23.62;27.32;99749.66;5060535;28;1901;-51
2021/01/20 08:42:11;;;;;;;;;;;;;;;23.63;27.22;99751.78;5057517;28;1467;-54
2021/01/20 08:44:36;;;;;;;;;;;;;;;-147.10;100.00;63486.59;5059182;28;1284;-53
2021/01/20 08:47:01;;;;;;;;;;;;;;;23.65;27.20;99749.91;5057112;28;1200;-51
2021/01/20 08:49:27;;;;;;;;;;;;;;;23.64;27.21;99747.56;5042151;28;1064;-51
2021/01/20 08:51:56;;;;;;;;;;;;;;;23.64;27.12;99743.78;5057968;28;1424;-54
2021/01/20 08:54:21;;;;;;;;;;;;;;;23.67;27.13;99740.78;5061038;28;853;-51
2021/01/20 08:56:46;;;;;;;;;;;;;;;23.66;27.19;99738.66;5061045;28;1189;-53
2021/01/20 08:59:12;;;;;;;;;;;;;;;23.68;27.61;99741.25;5059996;28;1894;-54
2021/01/20 09:01:37;;;;;;;;;;;;;;;23.92;27.03;99740.94;5057355;28;1389;-58
2021/01/20 09:04:02;;;;;;;;;;;;;;;24.19;27.38;99743.06;5041580;28;1269;-58
2021/01/20 09:06:28;;;;;;;;;;;;;;;24.28;27.31;99743.75;5060438;28;1064;-58
2021/01/20 09:08:53;;;;;;;;;;;;;;;24.33;27.44;99741.78;5062040;28;939;-56
2021/01/20 09:11:19;;;;;;;;;;;;;;;24.39;27.35;99738.09;5058273;28;1546;-55
2021/01/20 09:13:47;;;;;;;;;;;;;;;24.41;27.51;99733.75;5060622;28;1012;-58
2021/01/20 09:16:12;;;;;;;;;;;;;;;24.43;27.31;99726.84;5060339;28;1178;-56
2021/01/20 09:18:38;;;;;;;;;;;;;;;24.43;27.20;99723.88;5060087;28;1155;-58
2021/01/20 09:21:03;;;;;;;;;;;;;;;24.45;27.44;99720.03;5058811;28;2243;-59
2021/01/20 09:23:29;;;;;;;;;;;;;;;24.46;27.76;99716.66;5060217;28;1088;-56
2021/01/20 09:25:54;;;;;;;;;;;;;;;24.48;27.33;99715.66;5061343;28;876;-55
2021/01/20 09:28:20;;;;;;;;;;;;;;;24.49;27.87;99711.09;5058453;28;1200;-58
2021/01/20 09:30:46;;;;;;;;;;;;;;;24.49;27.73;99705.00;5058543;28;1296;-58
2021/01/20 09:33:11;;;;;;;;;;;;;;;24.52;27.91;99702.63;5058622;28;1299;-56
2021/01/20 09:35:36;;;;;;;;;;;;;;;24.53;28.13;99703.44;5060161;28;995;-54
2021/01/20 09:38:02;;;;;;;;;;;;;;;24.55;28.13;99704.03;5060052;28;1144;-55
2021/01/20 09:40:27;;;;;;;;;;;;;;;-147.10;100.00;63486.59;5059651;28;1951;-55
2021/01/20 09:42:53;;;;;;;;;;;;;;;24.58;28.25;99703.66;5060338;28;1185;-53
2021/01/20 09:45:19;;;;;;;;;;;;;;;24.59;27.92;99700.97;5044152;28;1461;-56
2021/01/20 09:47:46;;;;;;;;;;;;;;;24.60;28.39;99696.72;5060734;28;1459;-54
2021/01/20 09:50:13;;;;;;;;;;;;;;;24.63;28.01;99696.50;5063872;28;999;-56
2021/01/20 09:52:38;;;;;;;;;;;;;;;24.64;28.15;99697.88;5057569;28;1452;-57
2021/01/20 09:55:04;;;;;;;;;;;;;;;24.66;27.98;99694.00;5062011;28;1136;-59
2021/01/20 09:57:29;;;;;;;;;;;;;;;24.66;27.73;99693.56;5062895;28;1163;-60
2021/01/20 09:59:54;;;;;;;;;;;;;;;24.67;27.58;99694.78;5065261;28;1898;-57
2021/01/20 10:02:19;;;;;;;;;;;;;;;24.70;27.89;99697.09;5064725;28;1388;-53
2021/01/20 10:04:45;;;;;;;;;;;;;;;24.71;27.84;99697.13;5063220;28;1150;-56
2021/01/20 10:07:11;;;;;;;;;;;;;;;24.73;27.94;99697.81;5063471;28;1516;-55
2021/01/20 10:09:39;;;;;;;;;;;;;;;24.75;27.83;99694.03;5064403;28;1054;-52
2021/01/20 10:12:05;;;;;;;;;;;;;;;24.77;27.89;99687.56;5063217;28;1282;-57
2021/01/20 10:14:30;;;;;;;;;;;;;;;24.78;27.61;99682.06;5063311;28;1022;-56
2021/01/20 10:16:55;;;;;;;;;;;;;;;24.80;27.96;99677.81;5063640;28;1077;-56
2021/01/20 10:19:20;;;;;;;;;;;;;;;24.81;27.67;99680.66;5062978;28;1898;-54
2021/01/20 10:21:46;;;;;;;;;;;;;;;24.82;27.75;99678.34;5063615;28;1290;-58
2021/01/20 10:24:11;;;;;;;;;;;;;;;24.84;27.56;99674.53;5062761;28;1207;-53
2021/01/20 10:26:37;;;;;;;;;;;;;;;24.85;27.54;99665.38;5063153;28;951;-57
2021/01/20 10:29:02;;;;;;;;;;;;;;;24.87;27.46;99659.13;5062357;28;1168;-55
2021/01/20 10:31:28;;;;;;;;;;;;;;;24.88;27.55;99653.38;5063542;28;1279;-58
2021/01/20 10:33:53;;;;;;;;;;;;;;;24.88;27.54;99649.88;5063099;28;1136;-57
2021/01/20 10:36:19;;;;;;;;;;;;;;;24.91;27.36;99645.34;5064439;28;1117;-56
2021/01/20 10:38:44;;;;;;;;;;;;;;;24.92;27.28;99640.72;5063641;28;1898;-58
2021/01/20 10:41:09;;;;;;;;;;;;;;;24.93;27.47;99637.66;5064016;28;1316;-60
2021/01/20 10:43:34;;;;;;;;;;;;;;;24.95;27.17;99636.00;5065196;28;1191;-56
2021/01/20 10:45:59;;;;;;;;;;;;;;;24.96;27.23;99632.59;5065315;28;1162;-58
2021/01/20 10:48:25;;;;;;;;;;;;;;;24.96;27.12;99628.56;5045705;28;1193;-59
2021/01/20 10:50:50;;;;;;;;;;;;;;;24.95;27.36;99624.66;5063819;28;1474;-61
2021/01/20 10:53:15;;;;;;;;;;;;;;;24.95;27.11;99615.59;5064185;28;1197;-60
2021/01/20 10:55:40;;;;;;;;;;;;;;;24.95;27.23;99609.84;5064117;28;1219;-59
2021/01/20 10:58:05;;;;;;;;;;;;;;;24.96;27.39;99608.63;5064783;28;1495;-60
2021/01/20 11:00:30;;;;;;;;;;;;;;;24.98;27.14;99605.59;5065027;28;1969;-59
2021/01/20 11:02:56;;;;;;;;;;;;;;;24.99;27.30;99603.44;5063969;28;1156;-60
2021/01/20 11:05:21;;;;;;;;;;;;;;;24.99;26.97;99597.41;5064743;28;1337;-60
2021/01/20 11:07:46;;;;;;;;;;;;;;;25.01;27.05;99596.06;5064964;28;1043;-61
2021/01/20 11:10:11;;;;;;;;;;;;;;;25.03;27.49;99587.50;5060932;28;1167;-57
2021/01/20 11:12:36;;;;;;;;;;;;;;;25.07;27.36;99586.66;5062384;28;1286;-57
2021/01/20 11:15:02;;;;;;;;;;;;;;;25.09;27.11;99585.19;5062318;28;1184;-58
2021/01/20 11:17:27;;;;;;;;;;;;;;;25.10;27.13;99585.47;5061273;28;1193;-54
2021/01/20 11:19:52;;;;;;;;;;;;;;;25.12;27.07;99582.59;5061664;28;1914;-53
2021/01/20 11:22:17;;;;;;;;;;;;;;;25.13;27.06;99577.34;5062740;28;1278;-58
2021/01/20 11:24:42;;;;;;;;;;;;;;;25.14;26.79;99565.00;5062127;28;1037;-53
2021/01/20 11:27:08;;;;;;;;;;;;;;;25.15;26.81;99560.34;5063026;28;1181;-54
2021/01/20 11:29:33;;;;;;;;;;;;;;;25.16;27.11;99552.25;5062314;28;1174;-58
2021/01/20 11:31:58;;;;;;;;;;;;;;;25.19;27.00;99544.38;5062496;28;1341;-57
2021/01/20 11:34:23;;;;;;;;;;;;;;;25.18;26.75;99540.56;5063587;28;1408;-54
2021/01/20 11:36:50;;;;;;;;;;;;;;;25.19;26.89;99540.44;5061268;28;1307;-53
2021/01/20 11:39:15;;;;;;;;;;;;;;;25.15;26.90;99537.84;5061696;28;1906;-52
2021/01/20 11:41:40;;;;;;;;;;;;;;;25.18;26.92;99544.44;5061031;28;1330;-54
2021/01/20 11:44:05;;;;;;;;;;;;;;;25.16;26.66;99539.97;5062473;28;895;-52
2021/01/20 11:46:31;;;;;;;;;;;;;;;25.18;26.83;99540.31;5060711;28;1128;-55
2021/01/20 11:48:57;;;;;;;;;;;;;;;25.19;26.74;99534.47;5061019;28;1132;-59
2021/01/20 11:51:22;;;;;;;;;;;;;;;25.18;26.86;99530.31;5061711;28;1360;-61
2021/01/20 11:53:47;;;;;;;;;;;;;;;25.16;26.53;99522.53;5059709;28;1427;-56
2021/01/20 11:56:12;;;;;;;;;;;;;;;25.15;26.85;99512.88;5062701;28;1340;-53
2021/01/20 11:58:38;;;;;;;;;;;;;;;25.15;26.81;99507.22;5061368;28;1188;-55
2021/01/20 12:01:03;;;;;;;;;;;;;;;25.13;26.87;99494.31;5062914;28;1963;-55
2021/01/20 12:03:28;;;;;;;;;;;;;;;25.12;26.69;99494.03;5062364;28;1145;-55
2021/01/20 12:05:53;;;;;;;;;;;;;;;25.13;26.90;99483.97;5063053;28;1252;-51
2021/01/20 12:08:19;;;;;;;;;;;;;;;25.09;26.88;99485.94;5062924;28;1154;-52
2021/01/20 12:10:44;;;;;;;;;;;;;;;25.18;26.85;99477.59;5059840;28;1331;-51
2021/01/20 12:13:11;;;;;;;;;;;;;;;25.25;26.68;99474.97;5041834;28;1202;-54
2021/01/20 12:15:36;;;;;;;;;;;;;;;25.29;26.66;99468.44;5060998;28;1328;-57
2021/01/20 12:18:01;;;;;;;;;;;;;;;25.31;26.45;99467.28;5059490;28;1479;-56
2021/01/20 12:20:27;;;;;;;;;;;;;;;25.31;26.48;99462.63;5061488;28;1957;-54
2021/01/20 12:22:52;;;;;;;;;;;;;;;25.31;26.66;99458.44;5061055;28;1253;-52
2021/01/20 12:25:17;;;;;;;;;;;;;;;25.33;26.19;99454.59;5054118;28;1556;-52
2021/01/20 12:27:43;;;;;;;;;;;;;;;25.34;26.30;99449.44;5056115;28;1787;-50
2021/01/20 12:30:08;;;;;;;;;;;;;;;25.35;26.44;99446.78;5048485;28;1258;-55
2021/01/20 12:32:33;;;;;;;;;;;;;;;25.37;26.23;99444.63;5048459;28;1232;-57
2021/01/20 12:34:58;;;;;;;;;;;;;;;25.34;26.48;99439.09;5059835;28;1040;-55
2021/01/20 12:37:23;;;;;;;;;;;;;;;25.35;26.49;99433.19;5059683;28;1201;-53
2021/01/20 12:39:49;;;;;;;;;;;;;;;25.35;26.34;99428.00;5060761;28;1902;-50
2021/01/20 12:42:14;;;;;;;;;;;;;;;25.35;26.73;99427.41;5059319;28;1335;-52
2021/01/20 12:44:39;;;;;;;;;;;;;;;25.35;26.75;99426.06;5059889;28;920;-55
2021/01/20 12:47:04;;;;;;;;;;;;;;;25.36;26.79;99421.72;5059503;28;1177;-54
2021/01/20 12:49:30;;;;;;;;;;;;;;;25.38;26.99;99418.69;5060795;28;1128;-54
2021/01/20 12:51:55;;;;;;;;;;;;;;;25.38;27.29;99418.34;5059767;28;1260;-50